createdAt,value
2022-10-19T00:00:33.570Z,5.40
2022-10-19T00:01:33.561Z,4.60
2022-10-19T00:02:33.580Z,4.80
2022-10-19T00:03:33.543Z,4.50
2022-10-19T00:04:33.551Z,4.60
2022-10-19T00:05:33.534Z,4.80
2022-10-19T00:06:33.499Z,4.90
2022-10-19T00:07:33.716Z,4.70
2022-10-19T00:08:33.495Z,4.70
2022-10-19T00:09:33.475Z,4.20
2022-10-19T00:10:33.460Z,4.40
2022-10-19T00:11:33.453Z,4.60
2022-10-19T00:12:33.439Z,4.40
2022-10-19T00:13:33.441Z,4.80
2022-10-19T00:14:33.441Z,4.50
2022-10-19T00:15:33.402Z,5.10
2022-10-19T00:16:33.423Z,4.70
2022-10-19T00:17:33.646Z,4.70
2022-10-19T00:18:33.386Z,4.50
2022-10-19T00:19:33.371Z,5.10
2022-10-19T00:20:33.343Z,5.00
2022-10-19T00:21:33.346Z,5.10
2022-10-19T00:22:33.549Z,5.00
2022-10-19T00:23:33.304Z,5.00
2022-10-19T00:24:33.303Z,5.40
2022-10-19T00:25:33.294Z,5.10
2022-10-19T00:26:33.267Z,5.30
2022-10-19T00:27:33.267Z,5.10
2022-10-19T00:28:33.318Z,5.30
2022-10-19T00:29:33.255Z,5.40
2022-10-19T00:30:33.215Z,5.70
2022-10-19T00:31:33.215Z,4.90
2022-10-19T00:32:33.423Z,5.10
2022-10-19T00:33:33.192Z,5.00
2022-10-19T00:34:33.194Z,5.40
2022-10-19T00:35:33.166Z,5.00
2022-10-19T00:36:33.151Z,4.70
2022-10-19T00:37:33.142Z,4.70
2022-10-19T00:38:33.129Z,5.00
2022-10-19T00:39:33.136Z,4.90
2022-10-19T00:40:33.104Z,5.60
2022-10-19T00:41:33.104Z,4.70
2022-10-19T00:42:33.351Z,4.40
2022-10-19T00:43:33.075Z,5.00
2022-10-19T00:44:33.075Z,5.70
2022-10-19T00:45:33.047Z,5.10
2022-10-19T00:46:33.034Z,5.10
2022-10-19T00:47:33.024Z,4.80
2022-10-19T00:48:33.016Z,5.30
2022-10-19T00:49:33.023Z,5.30
2022-10-19T00:50:32.991Z,5.10
2022-10-19T00:51:32.976Z,5.20
2022-10-19T00:52:33.258Z,5.40
2022-10-19T00:53:32.967Z,4.70
2022-10-19T00:54:32.944Z,4.90
2022-10-19T00:55:32.929Z,5.00
2022-10-19T00:56:32.916Z,4.30
2022-10-19T00:57:32.906Z,5.20
2022-10-19T00:58:32.906Z,4.50
2022-10-19T00:59:32.901Z,4.30
2022-10-19T01:00:32.865Z,4.40
2022-10-19T01:01:33.022Z,5.00
2022-10-19T01:02:33.103Z,4.60
2022-10-19T01:03:32.855Z,4.60
2022-10-19T01:04:32.855Z,5.10
2022-10-19T01:05:32.847Z,4.60
2022-10-19T01:06:32.805Z,4.50
2022-10-19T01:07:41.619Z,4.60
2022-10-19T01:08:32.783Z,4.30
2022-10-19T01:09:32.796Z,4.20
2022-10-19T01:10:32.759Z,4.50
2022-10-19T01:11:32.769Z,4.40
2022-10-19T01:12:32.735Z,4.70
2022-10-19T01:13:32.733Z,4.90
2022-10-19T01:14:32.723Z,4.60
2022-10-19T01:15:32.702Z,4.60
2022-10-19T01:16:32.696Z,4.20
2022-10-19T01:17:33.096Z,4.40
2022-10-19T01:18:32.652Z,4.60
2022-10-19T01:19:32.655Z,4.20
2022-10-19T01:20:32.648Z,4.00
2022-10-19T01:21:32.634Z,4.60
2022-10-19T01:22:32.606Z,4.70
2022-10-19T01:23:32.604Z,4.40
2022-10-19T01:24:34.827Z,4.20
2022-10-19T01:25:32.597Z,4.50
2022-10-19T01:26:32.564Z,4.20
2022-10-19T01:27:32.821Z,4.70
2022-10-19T01:28:32.624Z,3.90
2022-10-19T01:29:32.532Z,4.50
2022-10-19T01:30:32.536Z,4.40
2022-10-19T01:31:32.514Z,4.40
2022-10-19T01:32:32.497Z,4.70
2022-10-19T01:33:32.490Z,4.30
2022-10-19T01:34:32.475Z,4.10
2022-10-19T01:35:32.487Z,4.00
2022-10-19T01:36:32.449Z,3.70
2022-10-19T01:37:32.679Z,3.70
2022-10-19T01:38:32.427Z,3.90
2022-10-19T01:39:32.426Z,3.60
2022-10-19T01:40:32.435Z,3.60
2022-10-19T01:41:32.397Z,3.20
2022-10-19T01:42:32.386Z,3.50
2022-10-19T01:43:32.368Z,3.00
2022-10-19T01:44:32.356Z,3.10
2022-10-19T01:45:32.375Z,3.30
2022-10-19T01:46:32.340Z,4.00
2022-10-19T01:47:32.785Z,3.30
2022-10-19T01:48:32.312Z,3.60
2022-10-19T01:49:32.306Z,3.60
2022-10-19T01:50:32.309Z,4.10
2022-10-19T01:51:32.278Z,3.60
2022-10-19T01:52:32.540Z,3.40
2022-10-19T01:53:32.260Z,3.80
2022-10-19T01:54:32.246Z,3.70
2022-10-19T01:55:32.246Z,3.80
2022-10-19T01:56:32.216Z,3.60
2022-10-19T01:57:32.218Z,3.50
2022-10-19T01:58:32.201Z,4.00
2022-10-19T01:59:32.186Z,3.80
2022-10-19T02:00:32.177Z,3.70
2022-10-19T02:01:32.192Z,3.70
2022-10-19T02:02:32.391Z,3.50
2022-10-19T02:03:32.140Z,4.30
2022-10-19T02:04:32.140Z,4.20
2022-10-19T02:05:32.119Z,3.80
2022-10-19T02:06:32.118Z,4.00
2022-10-19T02:07:32.101Z,4.40
2022-10-19T02:08:32.080Z,4.60
2022-10-19T02:09:32.075Z,4.60
2022-10-19T02:10:32.051Z,3.80
2022-10-19T02:11:32.099Z,4.20
2022-10-19T02:12:32.285Z,3.90
2022-10-19T02:13:32.030Z,4.20
2022-10-19T02:14:32.014Z,3.90
2022-10-19T02:15:32.004Z,4.40
2022-10-19T02:16:31.992Z,4.00
2022-10-19T02:17:32.000Z,3.90
2022-10-19T02:18:31.969Z,3.80
2022-10-19T02:19:31.963Z,4.00
2022-10-19T02:20:31.944Z,3.90
2022-10-19T02:21:31.935Z,3.60
2022-10-19T02:22:32.155Z,3.70
2022-10-19T02:23:31.923Z,4.10
2022-10-19T02:24:31.899Z,3.90
2022-10-19T02:25:31.889Z,3.40
2022-10-19T02:26:31.872Z,3.40
2022-10-19T02:27:31.860Z,3.50
2022-10-19T02:28:31.872Z,3.70
2022-10-19T02:29:31.838Z,3.60
2022-10-19T02:30:31.834Z,3.60
2022-10-19T02:31:31.823Z,3.60
2022-10-19T02:32:32.134Z,3.60
2022-10-19T02:33:31.832Z,3.60
2022-10-19T02:34:31.779Z,3.70
2022-10-19T02:35:31.772Z,3.60
2022-10-19T02:36:31.760Z,3.40
2022-10-19T02:37:31.819Z,3.70
2022-10-19T02:38:31.751Z,3.40
2022-10-19T02:39:31.734Z,3.50
2022-10-19T02:40:31.712Z,3.60
2022-10-19T02:41:31.706Z,4.00
2022-10-19T02:42:31.863Z,3.80
2022-10-19T02:43:31.704Z,3.60
2022-10-19T02:44:31.674Z,3.30
2022-10-19T02:45:31.652Z,2.90
2022-10-19T02:46:31.687Z,3.00
2022-10-19T02:47:31.886Z,2.70
2022-10-19T02:48:31.633Z,2.60
2022-10-19T02:49:31.603Z,2.70
2022-10-19T02:50:31.601Z,2.50
2022-10-19T02:51:31.593Z,2.80
2022-10-19T02:52:31.573Z,2.40
2022-10-19T02:53:31.563Z,2.30
2022-10-19T02:54:31.573Z,2.40
2022-10-19T02:55:31.618Z,2.50
2022-10-19T02:56:31.537Z,2.30
2022-10-19T02:57:31.777Z,2.30
2022-10-19T02:58:31.504Z,2.20
2022-10-19T02:59:31.505Z,2.50
2022-10-19T03:00:31.496Z,2.40
2022-10-19T03:01:31.471Z,2.70
2022-10-19T03:02:31.453Z,2.60
2022-10-19T03:03:31.453Z,2.50
2022-10-19T03:04:31.453Z,2.50
2022-10-19T03:05:31.425Z,2.30
2022-10-19T03:06:31.403Z,2.50
2022-10-19T03:07:31.608Z,2.60
2022-10-19T03:08:31.396Z,2.40
2022-10-19T03:09:31.385Z,2.60
2022-10-19T03:10:31.379Z,2.40
2022-10-19T03:11:31.358Z,2.50
2022-10-19T03:12:31.351Z,2.70
2022-10-19T03:13:31.326Z,3.00
2022-10-19T03:14:31.326Z,2.30
2022-10-19T03:15:31.323Z,2.60
2022-10-19T03:16:31.307Z,2.20
2022-10-19T03:17:31.491Z,2.40
2022-10-19T03:18:31.287Z,2.90
2022-10-19T03:19:31.266Z,2.80
2022-10-19T03:20:31.279Z,3.10
2022-10-19T03:21:31.246Z,3.00
2022-10-19T03:22:31.229Z,3.10
2022-10-19T03:23:31.220Z,3.30
2022-10-19T03:24:31.207Z,3.30
2022-10-19T03:25:31.196Z,3.30
2022-10-19T03:26:31.211Z,3.30
2022-10-19T03:27:31.513Z,3.40
2022-10-19T03:28:31.245Z,3.30
2022-10-19T03:29:31.146Z,3.20
2022-10-19T03:30:31.143Z,2.80
2022-10-19T03:31:31.157Z,2.70
2022-10-19T03:32:31.118Z,2.80
2022-10-19T03:33:31.115Z,2.90
2022-10-19T03:34:31.090Z,2.70
2022-10-19T03:35:31.066Z,3.00
2022-10-19T03:36:31.066Z,3.10
2022-10-19T03:37:31.225Z,2.60
2022-10-19T03:38:31.041Z,2.90
2022-10-19T03:39:31.032Z,2.80
2022-10-19T03:40:31.026Z,3.30
2022-10-19T03:41:31.015Z,3.40
2022-10-19T03:42:31.010Z,3.60
2022-10-19T03:43:30.989Z,3.00
2022-10-19T03:44:30.977Z,3.30
2022-10-19T03:45:30.966Z,3.60
2022-10-19T03:46:30.951Z,3.50
2022-10-19T03:47:31.066Z,3.90
2022-10-19T03:48:30.929Z,3.40
2022-10-19T03:49:30.922Z,4.00
2022-10-19T03:50:30.909Z,4.00
2022-10-19T03:51:30.898Z,3.60
2022-10-19T03:52:30.910Z,4.00
2022-10-19T03:53:32.555Z,3.70
2022-10-19T03:54:30.870Z,4.10
2022-10-19T03:55:30.847Z,3.80
2022-10-19T03:56:30.839Z,3.60
2022-10-19T03:57:30.981Z,3.80
2022-10-19T03:58:30.829Z,4.40
2022-10-19T03:59:30.800Z,3.70
2022-10-19T04:00:30.797Z,4.10
2022-10-19T04:01:30.830Z,3.80
2022-10-19T04:02:30.772Z,3.90
2022-10-19T04:03:30.795Z,3.60
2022-10-19T04:04:30.775Z,4.10
2022-10-19T04:05:30.734Z,4.00
2022-10-19T04:06:30.725Z,4.30
2022-10-19T04:07:30.779Z,3.70
2022-10-19T04:08:30.730Z,3.60
2022-10-19T04:09:30.718Z,3.90
2022-10-19T04:10:30.682Z,3.90
2022-10-19T04:11:30.669Z,3.30
2022-10-19T04:12:30.654Z,3.60
2022-10-19T04:13:30.654Z,3.60
2022-10-19T04:14:33.109Z,3.60
2022-10-19T04:15:31.621Z,3.90
2022-10-19T04:16:30.613Z,4.10
2022-10-19T04:17:30.676Z,4.10
2022-10-19T04:18:30.591Z,3.80
2022-10-19T04:19:30.594Z,3.90
2022-10-19T04:20:30.563Z,3.70
2022-10-19T04:21:30.551Z,4.40
2022-10-19T04:22:30.541Z,3.70
2022-10-19T04:23:30.529Z,3.40
2022-10-19T04:24:30.535Z,3.40
2022-10-19T04:25:30.511Z,3.50
2022-10-19T04:26:30.510Z,3.70
2022-10-19T04:27:30.564Z,3.30
2022-10-19T04:28:30.524Z,3.80
2022-10-19T04:29:30.893Z,3.60
2022-10-19T04:30:30.457Z,3.70
2022-10-19T04:31:30.435Z,4.40
2022-10-19T04:32:30.433Z,3.60
2022-10-19T04:33:30.417Z,3.90
2022-10-19T04:34:30.425Z,3.40
2022-10-19T04:35:30.393Z,3.70
2022-10-19T04:36:30.381Z,3.40
2022-10-19T04:37:30.370Z,3.60
2022-10-19T04:38:30.364Z,3.50
2022-10-19T04:39:30.347Z,3.10
2022-10-19T04:40:30.354Z,3.70
2022-10-19T04:41:30.325Z,3.60
2022-10-19T04:42:30.324Z,3.00
2022-10-19T04:43:30.293Z,3.80
2022-10-19T04:44:30.298Z,3.40
2022-10-19T04:45:30.288Z,3.30
2022-10-19T04:46:30.284Z,3.70
2022-10-19T04:47:30.286Z,3.60
2022-10-19T04:48:30.247Z,3.80
2022-10-19T04:49:30.234Z,3.80
2022-10-19T04:50:30.228Z,3.60
2022-10-19T04:51:30.225Z,3.20
2022-10-19T04:52:30.211Z,3.30
2022-10-19T04:53:30.188Z,3.30
2022-10-19T04:54:30.174Z,3.60
2022-10-19T04:55:30.165Z,3.40
2022-10-19T04:56:30.185Z,3.10
2022-10-19T04:57:30.143Z,3.00
2022-10-19T04:58:30.136Z,3.10
2022-10-19T04:59:30.118Z,3.00
2022-10-19T05:00:30.112Z,2.90
2022-10-19T05:01:30.097Z,3.10
2022-10-19T05:02:30.109Z,2.70
2022-10-19T05:03:30.080Z,2.90
2022-10-19T05:04:30.064Z,2.70
2022-10-19T05:05:30.052Z,3.10
2022-10-19T05:06:30.052Z,3.10
2022-10-19T05:07:30.033Z,2.90
2022-10-19T05:08:30.019Z,3.00
2022-10-19T05:09:30.012Z,3.10
2022-10-19T05:10:29.996Z,3.20
2022-10-19T05:11:29.986Z,3.10
2022-10-19T05:12:29.969Z,3.10
2022-10-19T05:13:29.975Z,3.30
2022-10-19T05:14:29.954Z,3.60
2022-10-19T05:15:29.938Z,3.30
2022-10-19T05:16:29.941Z,2.80
2022-10-19T05:17:29.919Z,3.10
2022-10-19T05:18:29.931Z,3.20
2022-10-19T05:19:29.888Z,3.10
2022-10-19T05:20:29.883Z,3.00
2022-10-19T05:21:29.859Z,2.90
2022-10-19T05:22:29.860Z,3.20
2022-10-19T05:23:29.856Z,3.00
2022-10-19T05:24:29.838Z,3.20
2022-10-19T05:25:29.818Z,2.90
2022-10-19T05:26:29.813Z,3.10
2022-10-19T05:27:29.804Z,3.20
2022-10-19T05:28:29.849Z,3.10
2022-10-19T05:29:29.778Z,2.80
2022-10-19T05:30:29.770Z,2.60
2022-10-19T05:31:29.773Z,2.90
2022-10-19T05:32:29.752Z,3.20
2022-10-19T05:33:29.729Z,3.20
2022-10-19T05:34:29.735Z,3.10
2022-10-19T05:35:29.709Z,2.90
2022-10-19T05:36:29.716Z,2.80
2022-10-19T05:37:29.680Z,3.30
2022-10-19T05:38:29.685Z,3.10
2022-10-19T05:39:29.689Z,3.10
2022-10-19T05:40:29.664Z,3.00
2022-10-19T05:41:29.640Z,3.00
2022-10-19T05:42:29.634Z,3.20
2022-10-19T05:43:29.623Z,3.00
2022-10-19T05:44:29.667Z,3.50
2022-10-19T05:45:29.602Z,3.00
2022-10-19T05:46:29.657Z,3.00
2022-10-19T05:47:31.062Z,2.80
2022-10-19T05:48:29.567Z,2.90
2022-10-19T05:49:29.572Z,3.20
2022-10-19T05:50:29.549Z,2.80
2022-10-19T05:51:29.528Z,3.40
2022-10-19T05:52:29.520Z,3.60
2022-10-19T05:53:29.544Z,3.20
2022-10-19T05:54:29.512Z,3.50
2022-10-19T05:55:29.478Z,3.50
2022-10-19T05:56:29.468Z,3.30
2022-10-19T05:57:29.464Z,3.00
2022-10-19T05:58:29.452Z,3.00
2022-10-19T05:59:29.434Z,3.30
2022-10-19T06:00:29.442Z,2.90
2022-10-19T06:01:29.454Z,3.30
2022-10-19T06:02:29.402Z,3.40
2022-10-19T06:03:29.390Z,3.00
2022-10-19T06:04:29.405Z,3.00
2022-10-19T06:05:29.383Z,3.00
2022-10-19T06:06:29.391Z,2.70
2022-10-19T06:07:29.350Z,2.70
2022-10-19T06:08:29.334Z,3.30
2022-10-19T06:09:29.323Z,2.90
2022-10-19T06:10:29.334Z,3.00
2022-10-19T06:11:29.292Z,3.20
2022-10-19T06:12:29.285Z,3.30
2022-10-19T06:13:29.272Z,3.20
2022-10-19T06:14:29.261Z,3.40
2022-10-19T06:15:29.252Z,3.00
2022-10-19T06:16:29.264Z,3.30
2022-10-19T06:17:29.387Z,3.10
2022-10-19T06:18:29.242Z,3.00
2022-10-19T06:19:29.216Z,3.50
2022-10-19T06:20:29.194Z,3.30
2022-10-19T06:21:29.195Z,3.40
2022-10-19T06:22:29.175Z,3.50
2022-10-19T06:23:29.255Z,3.80
2022-10-19T06:24:29.156Z,3.80
2022-10-19T06:25:29.143Z,3.50
2022-10-19T06:26:29.125Z,4.00
2022-10-19T06:27:29.172Z,3.50
2022-10-19T06:28:29.117Z,3.40
2022-10-19T06:29:29.100Z,3.70
2022-10-19T06:30:29.141Z,3.50
2022-10-19T06:31:29.063Z,3.50
2022-10-19T06:32:29.082Z,3.60
2022-10-19T06:33:29.052Z,3.40
2022-10-19T06:34:29.143Z,3.40
2022-10-19T06:35:29.044Z,3.50
2022-10-19T06:36:29.016Z,4.00
2022-10-19T06:37:29.005Z,3.40
2022-10-19T06:38:28.982Z,3.70
2022-10-19T06:39:28.978Z,3.90
2022-10-19T06:40:29.026Z,3.50
2022-10-19T06:41:28.956Z,3.20
2022-10-19T06:42:28.948Z,3.70
2022-10-19T06:43:28.948Z,3.60
2022-10-19T06:44:28.926Z,3.00
2022-10-19T06:45:32.295Z,3.20
2022-10-19T06:46:29.895Z,3.00
2022-10-19T06:47:28.922Z,3.10
2022-10-19T06:48:28.877Z,3.30
2022-10-19T06:49:28.878Z,3.00
2022-10-19T06:50:28.853Z,2.70
2022-10-19T06:51:28.839Z,2.90
2022-10-19T06:52:28.837Z,3.10
2022-10-19T06:53:28.818Z,3.10
2022-10-19T06:54:28.829Z,3.10
2022-10-19T06:55:28.798Z,2.90
2022-10-19T06:56:28.790Z,2.90
2022-10-19T06:57:28.770Z,3.00
2022-10-19T06:58:28.761Z,2.50
2022-10-19T06:59:28.768Z,2.70
2022-10-19T07:00:28.953Z,3.10
2022-10-19T07:01:28.833Z,2.70
2022-10-19T07:02:28.716Z,2.90
2022-10-19T07:03:28.707Z,2.60
2022-10-19T07:04:28.698Z,2.50
2022-10-19T07:05:28.698Z,2.50
2022-10-19T07:06:28.685Z,2.70
2022-10-19T07:07:28.684Z,2.30
2022-10-19T07:08:28.648Z,2.50
2022-10-19T07:09:28.638Z,2.60
2022-10-19T07:10:28.641Z,2.30
2022-10-19T07:11:28.614Z,2.50
2022-10-19T07:12:28.610Z,2.50
2022-10-19T07:13:28.595Z,2.70
2022-10-19T07:14:28.587Z,2.40
2022-10-19T07:15:28.573Z,2.30
2022-10-19T07:16:28.573Z,2.90
2022-10-19T07:17:28.550Z,3.10
2022-10-19T07:18:28.531Z,2.50
2022-10-19T07:19:28.526Z,2.70
2022-10-19T07:20:28.520Z,2.30
2022-10-19T07:21:28.498Z,2.10
2022-10-19T07:22:28.522Z,2.50
2022-10-19T07:23:28.482Z,2.30
2022-10-19T07:24:28.481Z,2.60
2022-10-19T07:25:28.468Z,2.60
2022-10-19T07:26:28.440Z,2.40
2022-10-19T07:27:28.430Z,2.60
2022-10-19T07:28:28.419Z,2.50
2022-10-19T07:29:28.404Z,2.50
2022-10-19T07:30:28.396Z,2.50
2022-10-19T07:31:28.406Z,2.60
2022-10-19T07:32:28.399Z,2.60
2022-10-19T07:33:28.354Z,2.30
2022-10-19T07:34:29.171Z,2.40
2022-10-19T07:35:28.344Z,2.60
2022-10-19T07:36:28.349Z,2.40
2022-10-19T07:37:28.315Z,2.30
2022-10-19T07:38:28.304Z,2.30
2022-10-19T07:39:28.293Z,2.30
2022-10-19T07:40:28.283Z,2.20
2022-10-19T07:41:28.301Z,2.70
2022-10-19T07:42:28.255Z,1.90
2022-10-19T07:43:28.242Z,1.90
2022-10-19T07:44:28.230Z,1.90
2022-10-19T07:45:28.227Z,2.00
2022-10-19T07:46:28.202Z,1.90
2022-10-19T07:47:28.213Z,1.80
2022-10-19T07:48:28.180Z,1.80
2022-10-19T07:49:28.190Z,2.20
2022-10-19T07:50:28.173Z,1.90
2022-10-19T07:52:29.905Z,1.70
2022-10-19T07:53:28.141Z,1.90
2022-10-19T07:54:28.120Z,1.70
2022-10-19T07:55:28.112Z,1.80
2022-10-19T07:56:28.103Z,1.90
2022-10-19T07:57:28.104Z,1.60
2022-10-19T07:58:28.085Z,1.70
2022-10-19T07:59:28.062Z,1.80
2022-10-19T08:00:28.120Z,1.60
2022-10-19T08:01:28.041Z,2.00
2022-10-19T08:02:34.995Z,1.90
2022-10-19T08:04:31.363Z,1.80
2022-10-19T08:04:55.976Z,1.80
2022-10-19T08:05:29.073Z,1.90
2022-10-19T08:06:27.978Z,1.50
2022-10-19T08:07:27.978Z,1.80
2022-10-19T08:08:28.013Z,1.60
2022-10-19T08:10:28.934Z,1.70
2022-10-19T08:11:27.926Z,1.90
2022-10-19T08:12:27.921Z,1.70
2022-10-19T08:13:27.908Z,2.00
2022-10-19T08:14:27.896Z,1.70
2022-10-19T08:15:27.887Z,1.80
2022-10-19T08:16:27.862Z,1.70
2022-10-19T08:17:27.856Z,1.70
2022-10-19T08:18:27.862Z,2.00
2022-10-19T08:19:27.850Z,2.10
2022-10-19T08:20:27.818Z,2.30
2022-10-19T08:21:27.819Z,2.10
2022-10-19T08:22:27.794Z,2.20
2022-10-19T08:23:27.780Z,2.00
2022-10-19T08:24:27.789Z,2.20
2022-10-19T08:25:27.766Z,2.10
2022-10-19T08:26:27.751Z,2.10
2022-10-19T08:27:27.769Z,2.20
2022-10-19T08:28:27.721Z,2.40
2022-10-19T08:29:30.638Z,2.30
2022-10-19T08:30:27.708Z,2.40
2022-10-19T08:31:27.691Z,2.50
2022-10-19T08:32:27.683Z,2.30
2022-10-19T08:33:27.671Z,2.30
2022-10-19T08:34:27.666Z,2.30
2022-10-19T08:35:27.641Z,2.40
2022-10-19T08:36:27.633Z,2.50
2022-10-19T08:37:40.757Z,2.30
2022-10-19T08:38:28.603Z,2.30
2022-10-19T08:39:27.623Z,2.00
2022-10-19T08:40:27.586Z,2.30
2022-10-19T08:41:27.583Z,2.40
2022-10-19T08:42:27.566Z,2.50
2022-10-19T08:43:27.564Z,2.80
2022-10-19T08:44:27.559Z,2.60
2022-10-19T08:45:27.545Z,2.70
2022-10-19T08:46:27.515Z,2.70
2022-10-19T08:47:27.513Z,2.40
2022-10-19T08:48:27.495Z,2.80
2022-10-19T08:49:27.508Z,2.60
2022-10-19T08:50:27.475Z,2.60
2022-10-19T08:51:27.467Z,2.20
2022-10-19T08:52:29.677Z,2.50
2022-10-19T08:53:28.461Z,2.80
2022-10-19T08:54:27.428Z,2.60
2022-10-19T08:55:27.435Z,2.70
2022-10-19T08:56:49.221Z,2.40
2022-10-19T08:57:28.415Z,2.50
2022-10-19T08:58:27.392Z,2.40
2022-10-19T08:59:27.372Z,2.70
2022-10-19T09:00:27.411Z,3.00
2022-10-19T09:01:27.383Z,2.40
2022-10-19T09:02:27.351Z,2.50
2022-10-19T09:03:37.738Z,2.90
2022-10-19T09:04:28.319Z,2.50
2022-10-19T09:05:27.324Z,2.40
2022-10-19T09:06:27.308Z,2.40
2022-10-19T09:07:27.440Z,2.50
2022-10-19T09:08:27.327Z,2.30
2022-10-19T09:09:27.257Z,2.20
2022-10-19T09:10:27.259Z,2.30
2022-10-19T09:11:27.236Z,2.20
2022-10-19T09:12:27.229Z,2.00
2022-10-19T09:13:36.464Z,2.20
2022-10-19T09:14:28.201Z,2.10
2022-10-19T09:15:27.209Z,2.30
2022-10-19T09:16:27.181Z,2.20
2022-10-19T09:17:27.170Z,2.10
2022-10-19T09:18:27.159Z,2.10
2022-10-19T09:19:27.147Z,2.10
2022-10-19T09:20:27.151Z,2.10
2022-10-19T09:21:33.425Z,2.10
2022-10-19T09:22:28.116Z,2.00
2022-10-19T09:23:27.101Z,1.80
2022-10-19T09:24:27.079Z,2.00
2022-10-19T09:25:27.100Z,2.00
2022-10-19T09:26:27.061Z,2.00
2022-10-19T09:27:27.061Z,1.90
2022-10-19T09:28:31.464Z,1.70
2022-10-19T09:29:28.035Z,1.70
2022-10-19T09:30:27.041Z,1.80
2022-10-19T09:31:30.402Z,1.80
2022-10-19T09:32:27.022Z,1.60
2022-10-19T09:33:26.986Z,2.00
2022-10-19T09:34:26.979Z,1.90
2022-10-19T09:35:26.984Z,1.70
2022-10-19T09:36:39.234Z,1.90
2022-10-19T09:37:27.961Z,1.50
2022-10-19T09:38:26.934Z,1.60
2022-10-19T09:39:29.348Z,1.70
2022-10-19T09:40:26.911Z,1.50
2022-10-19T09:41:26.911Z,1.70
2022-10-19T09:42:26.886Z,1.50
2022-10-19T09:43:26.882Z,1.80
2022-10-19T09:44:26.880Z,1.80
2022-10-19T09:45:26.871Z,1.80
2022-10-19T09:46:26.857Z,1.50
2022-10-19T09:47:26.828Z,1.70
2022-10-19T09:48:26.815Z,1.20
2022-10-19T09:49:26.804Z,1.50
2022-10-19T09:50:26.785Z,1.80
2022-10-19T09:51:26.796Z,1.40
2022-10-19T09:52:26.774Z,2.00
2022-10-19T09:53:26.759Z,2.10
2022-10-19T09:54:26.735Z,2.00
2022-10-19T09:55:26.748Z,2.00
2022-10-19T09:56:26.774Z,1.50
2022-10-19T09:57:26.705Z,1.70
2022-10-19T09:58:29.187Z,1.80
2022-10-19T09:59:27.696Z,1.50
2022-10-19T10:00:26.667Z,1.80
2022-10-19T10:01:33.107Z,1.60
2022-10-19T10:02:27.744Z,1.60
2022-10-19T10:03:26.648Z,1.70
2022-10-19T10:04:26.629Z,1.40
2022-10-19T10:05:26.625Z,1.50
2022-10-19T10:06:26.601Z,1.90
2022-10-19T10:07:26.619Z,1.60
2022-10-19T10:08:26.617Z,1.70
2022-10-19T10:09:26.579Z,1.90
2022-10-19T10:10:29.644Z,1.70
2022-10-19T10:11:26.549Z,1.60
2022-10-19T10:12:26.550Z,1.80
2022-10-19T10:13:26.531Z,1.70
2022-10-19T10:14:26.508Z,1.40
2022-10-19T10:15:26.499Z,1.90
2022-10-19T10:16:58.470Z,1.80
2022-10-19T10:17:26.494Z,1.60
2022-10-19T10:18:26.469Z,1.80
2022-10-19T10:19:27.251Z,1.70
2022-10-19T10:20:47.511Z,1.60
2022-10-19T10:21:26.500Z,1.40
2022-10-19T10:22:26.444Z,1.40
2022-10-19T10:23:26.412Z,2.10
2022-10-19T10:24:26.411Z,1.70
2022-10-19T10:25:26.389Z,1.80
2022-10-19T10:26:26.441Z,1.70
2022-10-19T10:27:26.384Z,1.30
2022-10-19T10:28:26.347Z,1.60
2022-10-19T10:29:26.347Z,1.40
2022-10-19T10:30:26.331Z,1.70
2022-10-19T10:31:26.322Z,1.70
2022-10-19T10:32:26.325Z,1.80
2022-10-19T10:33:43.749Z,1.70
2022-10-19T10:34:38.536Z,2.20
2022-10-19T10:35:27.270Z,1.40
2022-10-19T10:36:26.258Z,1.70
2022-10-19T10:37:26.274Z,1.50
2022-10-19T10:38:26.231Z,1.40
2022-10-19T10:39:26.221Z,1.20
2022-10-19T10:40:26.211Z,1.50
2022-10-19T10:41:26.208Z,1.30
2022-10-19T10:42:26.191Z,1.40
2022-10-19T10:43:26.221Z,1.40
2022-10-19T10:44:26.156Z,1.90
2022-10-19T10:45:26.155Z,1.60
2022-10-19T10:46:26.147Z,1.80
2022-10-19T10:47:26.154Z,1.50
2022-10-19T10:48:26.136Z,1.50
2022-10-19T10:49:26.115Z,1.50
2022-10-19T10:50:26.093Z,1.40
2022-10-19T10:51:26.083Z,1.30
2022-10-19T10:52:26.075Z,1.40
2022-10-19T10:53:26.066Z,1.20
2022-10-19T10:54:26.064Z,1.10
2022-10-19T10:55:26.032Z,1.10
2022-10-19T10:56:26.026Z,1.10
2022-10-19T10:57:26.021Z,1.40
2022-10-19T10:58:29.596Z,1.50
2022-10-19T10:59:26.004Z,1.30
2022-10-19T11:00:25.984Z,1.30
2022-10-19T11:01:26.033Z,1.30
2022-10-19T11:03:25.947Z,1.30
2022-10-19T11:04:25.955Z,1.10
2022-10-19T11:05:25.927Z,1.20
2022-10-19T11:06:25.915Z,1.20
2022-10-19T11:07:25.908Z,1.20
2022-10-19T11:08:25.927Z,1.40
2022-10-19T11:09:25.877Z,1.20
2022-10-19T11:10:25.881Z,1.50
2022-10-19T11:11:25.852Z,1.50
2022-10-19T11:12:25.849Z,1.20
2022-10-19T11:13:25.835Z,1.20
2022-10-19T11:14:25.817Z,1.10
2022-10-19T11:15:25.846Z,1.20
2022-10-19T11:16:25.797Z,1.10
2022-10-19T11:17:25.788Z,1.10
2022-10-19T11:18:25.771Z,1.30
2022-10-19T11:19:25.777Z,1.00
2022-10-19T11:20:25.778Z,1.10
2022-10-19T11:21:25.770Z,0.90
2022-10-19T11:22:27.069Z,0.90
2022-10-19T11:23:25.720Z,1.00
2022-10-19T11:24:25.731Z,1.10
2022-10-19T11:25:25.699Z,1.00
2022-10-19T11:26:25.698Z,0.90
2022-10-19T11:27:25.697Z,1.10
2022-10-19T11:28:25.649Z,0.90
2022-10-19T11:29:25.672Z,1.00
2022-10-19T11:30:25.626Z,1.20
2022-10-19T11:31:25.629Z,1.00
2022-10-19T11:32:25.630Z,1.20
2022-10-19T11:33:25.600Z,1.00
2022-10-19T11:34:26.097Z,1.10
2022-10-19T11:35:25.580Z,1.10
2022-10-19T11:36:25.567Z,1.20
2022-10-19T11:37:25.550Z,1.20
2022-10-19T11:38:29.790Z,1.00
2022-10-19T11:39:25.528Z,1.20
2022-10-19T11:40:25.532Z,1.20
2022-10-19T11:41:25.510Z,1.40
2022-10-19T11:42:25.521Z,1.00
2022-10-19T11:43:27.033Z,1.30
2022-10-19T11:44:25.482Z,1.00
2022-10-19T11:45:25.464Z,1.10
2022-10-19T11:46:25.446Z,1.10
2022-10-19T11:47:25.468Z,1.10
2022-10-19T11:48:25.443Z,1.20
2022-10-19T11:49:25.422Z,1.30
2022-10-19T11:50:27.117Z,1.20
2022-10-19T11:51:27.149Z,1.40
2022-10-19T11:52:25.390Z,1.10
2022-10-19T11:53:25.389Z,1.20
2022-10-19T11:54:25.355Z,1.20
2022-10-19T11:55:25.343Z,1.00
2022-10-19T11:56:35.015Z,1.00
2022-10-19T11:57:26.324Z,1.10
2022-10-19T11:58:25.464Z,1.10
2022-10-19T11:59:25.296Z,1.00
2022-10-19T12:00:38.843Z,1.20
2022-10-19T12:01:26.281Z,1.20
2022-10-19T12:02:25.326Z,1.20
2022-10-19T12:03:25.275Z,1.20
2022-10-19T12:04:25.253Z,1.10
2022-10-19T12:05:25.229Z,1.00
2022-10-19T12:06:25.224Z,1.20
2022-10-19T12:07:25.206Z,1.00
2022-10-19T12:08:32.331Z,1.20
2022-10-19T12:09:26.885Z,1.10
2022-10-19T12:10:25.187Z,1.50
2022-10-19T12:11:25.169Z,0.90
2022-10-19T12:12:25.165Z,1.20
2022-10-19T12:13:25.148Z,1.00
2022-10-19T12:14:25.153Z,1.20
2022-10-19T12:15:25.105Z,1.10
2022-10-19T12:16:25.112Z,1.10
2022-10-19T12:17:25.098Z,1.00
2022-10-19T12:18:25.085Z,1.00
2022-10-19T12:19:25.097Z,1.10
2022-10-19T12:20:25.060Z,1.00
2022-10-19T12:21:25.047Z,1.00
2022-10-19T12:22:25.037Z,1.10
2022-10-19T12:23:25.019Z,1.00
2022-10-19T12:24:25.027Z,0.80
2022-10-19T12:25:25.002Z,1.10
2022-10-19T12:26:25.001Z,1.10
2022-10-19T12:27:24.982Z,1.10
2022-10-19T12:28:24.954Z,1.00
2022-10-19T12:29:24.988Z,1.00
2022-10-19T12:30:24.961Z,1.20
2022-10-19T12:31:24.930Z,0.90
2022-10-19T12:32:24.931Z,1.00
2022-10-19T12:33:24.904Z,1.10
2022-10-19T12:34:24.929Z,1.00
2022-10-19T12:35:24.895Z,1.00
2022-10-19T12:36:24.881Z,0.80
2022-10-19T12:37:24.867Z,1.00
2022-10-19T12:38:24.875Z,0.90
2022-10-19T12:39:24.859Z,0.90
2022-10-19T12:40:24.823Z,0.80
2022-10-19T12:41:24.823Z,1.00
2022-10-19T12:42:24.802Z,1.10
2022-10-19T12:43:24.797Z,0.90
2022-10-19T12:45:24.807Z,1.00
2022-10-19T12:46:24.763Z,1.00
2022-10-19T12:47:24.745Z,1.00
2022-10-19T12:48:24.804Z,1.00
2022-10-19T12:49:24.742Z,0.90
2022-10-19T12:50:24.750Z,1.00
2022-10-19T12:51:24.709Z,1.10
2022-10-19T12:52:24.693Z,1.10
2022-10-19T12:54:24.686Z,1.10
2022-10-19T12:55:24.653Z,1.10
2022-10-19T12:56:24.651Z,1.00
2022-10-19T12:57:24.632Z,1.00
2022-10-19T12:58:24.623Z,1.00
2022-10-19T12:59:24.604Z,1.00
2022-10-19T13:00:24.657Z,1.00
2022-10-19T13:01:24.588Z,1.00
2022-10-19T13:02:24.621Z,0.90
2022-10-19T13:03:27.599Z,1.00
2022-10-19T13:04:24.564Z,1.00
2022-10-19T13:05:24.541Z,1.00
2022-10-19T13:06:24.530Z,0.90
2022-10-19T13:07:24.524Z,0.80
2022-10-19T13:08:24.562Z,0.90
2022-10-19T13:09:24.511Z,0.90
2022-10-19T13:10:24.485Z,1.00
2022-10-19T13:11:24.509Z,0.90
2022-10-19T13:12:25.857Z,0.90
2022-10-19T13:13:24.451Z,1.00
2022-10-19T13:14:24.435Z,0.90
2022-10-19T13:15:24.446Z,0.90
2022-10-19T13:16:24.422Z,1.00
2022-10-19T13:17:24.407Z,0.90
2022-10-19T13:18:24.398Z,0.80
2022-10-19T13:19:24.395Z,0.90
2022-10-19T13:20:24.378Z,0.90
2022-10-19T13:21:24.357Z,1.00
2022-10-19T13:22:24.348Z,0.80
2022-10-19T13:23:24.332Z,0.80